createdAt,value
2023-10-14T00:01:32.882Z,77.33
2023-10-14T00:04:00.943Z,77.85
2023-10-14T00:06:28.653Z,78.00
2023-10-14T00:08:58.516Z,77.49
2023-10-14T00:11:28.325Z,78.51
2023-10-14T00:13:54.956Z,77.96
2023-10-14T00:16:24.094Z,77.16
2023-10-14T00:18:51.102Z,78.05
2023-10-14T00:21:17.822Z,77.85
2023-10-14T00:23:44.619Z,76.51
2023-10-14T00:26:21.727Z,76.78
2023-10-14T00:28:55.483Z,76.09
2023-10-14T00:31:24.232Z,76.71
2023-10-14T00:33:53.871Z,76.71
2023-10-14T00:36:22.206Z,76.94
2023-10-14T00:39:12.832Z,76.59
2023-10-14T00:41:40.786Z,77.05
2023-10-14T00:44:07.393Z,76.30
2023-10-14T00:46:34.871Z,75.86
2023-10-14T00:49:04.675Z,75.96
2023-10-14T00:51:34.634Z,76.08
2023-10-14T00:54:05.455Z,76.39
2023-10-14T00:56:32.818Z,75.68
2023-10-14T00:59:05.829Z,75.97
2023-10-14T01:01:33.284Z,75.39
2023-10-14T01:04:19.957Z,74.05
2023-10-14T01:07:02.792Z,73.89
2023-10-14T01:09:54.524Z,73.28
2023-10-14T01:12:30.786Z,73.61
2023-10-14T01:15:00.302Z,73.05
2023-10-14T01:17:33.827Z,72.65
2023-10-14T01:20:27.512Z,72.73
2023-10-14T01:23:01.786Z,72.45
2023-10-14T01:25:33.864Z,71.51
2023-10-14T01:28:07.709Z,71.10
2023-10-14T01:30:39.085Z,71.38
2023-10-14T01:33:17.604Z,69.71
2023-10-14T01:35:46.865Z,69.92
2023-10-14T01:38:15.045Z,70.12
2023-10-14T01:40:50.208Z,69.36
2023-10-14T01:43:17.353Z,68.88
2023-10-14T01:45:55.991Z,68.82
2023-10-14T01:48:26.836Z,68.56
2023-10-14T01:50:58.917Z,68.12
2023-10-14T01:53:28.609Z,68.41
2023-10-14T01:55:59.190Z,67.10
2023-10-14T01:58:28.675Z,65.77
2023-10-14T02:01:06.235Z,64.81
2023-10-14T02:03:43.674Z,62.94
2023-10-14T02:06:20.531Z,63.66
2023-10-14T02:08:48.925Z,64.01
2023-10-14T02:11:21.956Z,64.71
2023-10-14T02:13:53.290Z,64.43
2023-10-14T02:16:26.666Z,64.56
2023-10-14T02:19:14.039Z,64.32
2023-10-14T02:21:41.941Z,64.82
2023-10-14T02:24:11.758Z,64.61
2023-10-14T02:26:40.306Z,64.44
2023-10-14T02:29:12.660Z,63.74
2023-10-14T02:31:39.634Z,63.94
2023-10-14T02:34:08.147Z,63.81
2023-10-14T02:36:36.537Z,62.40
2023-10-14T02:39:05.503Z,60.82
2023-10-14T02:41:33.176Z,61.02
2023-10-14T02:44:09.502Z,61.20
2023-10-14T02:46:43.938Z,60.39
2023-10-14T02:49:19.553Z,57.36
2023-10-14T02:51:47.077Z,56.54
2023-10-14T02:54:28.099Z,56.74
2023-10-14T02:56:55.890Z,56.25
2023-10-14T02:59:36.870Z,56.98
2023-10-14T03:02:15.182Z,56.50
2023-10-14T03:04:53.164Z,57.51
2023-10-14T03:07:32.614Z,56.55
2023-10-14T03:10:27.272Z,57.39
2023-10-14T03:12:53.946Z,57.28
2023-10-14T03:15:23.384Z,56.82
2023-10-14T03:17:59.414Z,58.11
2023-10-14T03:20:31.055Z,58.40
2023-10-14T03:23:10.888Z,59.12
2023-10-14T03:25:38.886Z,58.52
2023-10-14T03:28:11.932Z,58.57
2023-10-14T03:30:40.159Z,57.83
2023-10-14T03:33:16.411Z,58.37
2023-10-14T03:35:44.724Z,58.63
2023-10-14T03:38:26.424Z,57.76
2023-10-14T03:41:04.177Z,57.55
2023-10-14T03:43:53.553Z,58.05
2023-10-14T03:46:32.177Z,57.68
2023-10-14T03:48:59.973Z,58.71
2023-10-14T03:51:26.919Z,58.65
2023-10-14T03:53:58.627Z,58.98
2023-10-14T03:56:27.023Z,59.60
2023-10-14T03:58:56.619Z,59.74
2023-10-14T04:01:40.470Z,59.72
2023-10-14T04:04:20.585Z,59.95
2023-10-14T04:07:01.235Z,60.60
2023-10-14T04:09:57.492Z,61.03
2023-10-14T04:12:38.596Z,61.41
2023-10-14T04:15:07.595Z,62.23
2023-10-14T04:17:34.311Z,63.64
2023-10-14T04:20:10.455Z,65.70
2023-10-14T04:22:41.157Z,69.56
2023-10-14T04:25:12.391Z,71.66
2023-10-14T04:27:47.446Z,73.43
2023-10-14T04:30:22.039Z,73.60
2023-10-14T04:32:49.654Z,74.20
2023-10-14T04:35:24.287Z,75.80
2023-10-14T04:37:54.396Z,75.51
2023-10-14T04:40:35.779Z,75.38
2023-10-14T04:43:38.676Z,74.84
2023-10-14T04:46:14.613Z,74.40
2023-10-14T04:49:00.310Z,73.98
2023-10-14T04:51:48.674Z,73.76
2023-10-14T04:54:20.751Z,72.17
2023-10-14T04:56:48.092Z,71.73
2023-10-14T04:59:21.096Z,71.52
2023-10-14T05:01:49.364Z,71.10
2023-10-14T05:04:21.103Z,71.59
2023-10-14T05:06:49.025Z,71.57
2023-10-14T05:09:41.030Z,71.21
2023-10-14T05:12:15.495Z,70.31
2023-10-14T05:14:43.363Z,70.70
2023-10-14T05:17:16.246Z,71.65
2023-10-14T05:19:44.455Z,72.16
2023-10-14T05:22:14.907Z,72.12
2023-10-14T05:24:49.829Z,70.63
2023-10-14T05:27:21.164Z,71.96
2023-10-14T05:29:54.804Z,72.12
2023-10-14T05:32:25.887Z,73.46
2023-10-14T05:34:53.760Z,74.45
2023-10-14T05:37:22.955Z,74.00
2023-10-14T05:39:52.029Z,75.67
2023-10-14T05:42:22.338Z,77.58
2023-10-14T05:44:50.898Z,77.21
2023-10-14T05:47:19.226Z,78.20
2023-10-14T05:49:46.354Z,86.32
2023-10-14T05:52:14.456Z,94.41
2023-10-14T05:54:46.651Z,95.90
2023-10-14T05:57:13.549Z,96.02
2023-10-14T05:59:40.554Z,94.88
2023-10-14T06:02:09.390Z,97.30
2023-10-14T06:04:42.212Z,97.95
2023-10-14T06:07:10.285Z,98.30
2023-10-14T06:09:37.716Z,100.00
2023-10-14T06:12:13.989Z,100.00
2023-10-14T06:14:45.073Z,100.00
2023-10-14T06:17:15.969Z,100.00
2023-10-14T06:19:44.424Z,100.00
2023-10-14T06:22:14.844Z,100.00
2023-10-14T06:24:43.112Z,100.00
2023-10-14T06:27:10.074Z,100.00
2023-10-14T06:29:37.698Z,100.00
2023-10-14T06:32:19.667Z,100.00
2023-10-14T06:34:50.957Z,100.00
2023-10-14T06:37:17.918Z,100.00
2023-10-14T06:39:44.685Z,100.00
2023-10-14T06:42:13.593Z,100.00
2023-10-14T06:44:47.004Z,100.00
2023-10-14T06:47:14.332Z,100.00
2023-10-14T06:49:43.423Z,100.00
2023-10-14T06:52:13.632Z,100.00
2023-10-14T06:54:42.714Z,100.00
2023-10-14T06:57:10.031Z,100.00
2023-10-14T06:59:39.861Z,100.00
2023-10-14T07:02:07.623Z,100.00
2023-10-14T07:04:39.992Z,100.00
2023-10-14T07:07:10.818Z,100.00
2023-10-14T07:09:38.994Z,100.00
2023-10-14T07:12:15.159Z,100.00
2023-10-14T07:14:42.572Z,100.00
2023-10-14T07:17:09.327Z,97.27
2023-10-14T07:19:36.981Z,96.00
2023-10-14T07:22:09.386Z,91.74
2023-10-14T07:24:37.097Z,94.37
2023-10-14T07:27:04.822Z,92.41
2023-10-14T07:29:31.636Z,92.01
2023-10-14T07:31:58.527Z,91.13
2023-10-14T07:34:25.312Z,89.62
2023-10-14T07:36:52.385Z,88.14
2023-10-14T07:39:31.055Z,90.19
2023-10-14T07:41:58.072Z,90.57
2023-10-14T07:44:24.841Z,91.69
2023-10-14T07:46:51.974Z,92.86
2023-10-14T07:49:19.393Z,90.50
2023-10-14T07:51:47.460Z,90.38
2023-10-14T07:54:14.225Z,91.50
2023-10-14T07:56:44.409Z,90.26
2023-10-14T07:59:11.800Z,92.07
2023-10-14T08:01:40.006Z,90.76
2023-10-14T08:04:09.300Z,92.93
2023-10-14T08:06:41.671Z,92.92
2023-10-14T08:09:38.650Z,93.73
2023-10-14T08:12:06.692Z,94.03
2023-10-14T08:14:33.326Z,90.86
2023-10-14T08:17:00.259Z,91.82
2023-10-14T08:19:27.716Z,92.06
2023-10-14T08:21:54.528Z,90.60
2023-10-14T08:24:22.070Z,91.90
2023-10-14T08:26:51.123Z,89.48
2023-10-14T08:29:21.745Z,89.18
2023-10-14T08:31:55.066Z,87.50
2023-10-14T08:34:25.330Z,87.91
2023-10-14T08:36:52.152Z,86.39
2023-10-14T08:39:19.409Z,87.77
2023-10-14T08:41:49.192Z,87.17
2023-10-14T08:44:21.763Z,87.80
2023-10-14T08:46:49.261Z,83.51
2023-10-14T08:49:21.036Z,84.55
2023-10-14T08:51:54.802Z,80.02
2023-10-14T08:54:25.372Z,78.31
2023-10-14T08:56:53.127Z,76.10
2023-10-14T08:59:19.831Z,79.11
2023-10-14T09:01:53.050Z,78.05
2023-10-14T09:04:30.244Z,76.12
2023-10-14T09:07:04.281Z,76.69
2023-10-14T09:09:34.405Z,79.74
2023-10-14T09:12:12.820Z,74.17
2023-10-14T09:14:40.859Z,74.50
2023-10-14T09:17:12.080Z,73.53
2023-10-14T09:19:49.990Z,76.50
2023-10-14T09:22:29.298Z,75.28
2023-10-14T09:25:00.428Z,73.11
2023-10-14T09:27:27.829Z,73.14
2023-10-14T09:29:58.382Z,71.22
2023-10-14T09:32:26.302Z,71.60
2023-10-14T09:34:53.700Z,72.13
2023-10-14T09:37:22.903Z,73.63
2023-10-14T09:39:52.827Z,74.09
2023-10-14T09:42:22.746Z,74.15
2023-10-14T09:44:50.368Z,73.68
2023-10-14T09:47:21.204Z,67.45
2023-10-14T09:49:48.918Z,67.15
2023-10-14T09:52:18.549Z,66.62
2023-10-14T09:54:50.931Z,65.93
2023-10-14T09:57:18.481Z,64.07
2023-10-14T09:59:48.277Z,63.84
2023-10-14T10:02:15.677Z,64.15
2023-10-14T10:04:49.232Z,64.24
2023-10-14T10:07:22.250Z,63.83
2023-10-14T10:10:02.894Z,65.16
2023-10-14T10:12:32.302Z,63.05
2023-10-14T10:15:03.114Z,64.14
2023-10-14T10:17:30.143Z,63.73
2023-10-14T10:20:10.730Z,62.82
2023-10-14T10:22:52.371Z,61.79
2023-10-14T10:25:22.133Z,60.82
2023-10-14T10:27:51.429Z,60.09
2023-10-14T10:30:20.910Z,60.60
2023-10-14T10:32:51.831Z,61.35
2023-10-14T10:35:22.254Z,59.62
2023-10-14T10:37:57.886Z,58.85
2023-10-14T10:40:27.598Z,58.96
2023-10-14T10:43:12.918Z,59.32
2023-10-14T10:45:44.087Z,60.17
2023-10-14T10:48:15.658Z,59.31
2023-10-14T10:50:50.307Z,59.94
2023-10-14T10:53:20.138Z,59.80
2023-10-14T10:55:49.107Z,59.10
2023-10-14T10:58:17.152Z,59.63
2023-10-14T11:00:48.599Z,59.32
2023-10-14T11:03:17.057Z,58.14
2023-10-14T11:05:45.916Z,59.42
2023-10-14T11:08:13.068Z,60.67
2023-10-14T11:10:42.245Z,58.50
2023-10-14T11:13:10.078Z,56.98
2023-10-14T11:15:38.438Z,58.73
2023-10-14T11:18:06.246Z,56.38
2023-10-14T11:20:47.141Z,56.06
2023-10-14T11:23:15.240Z,55.13
2023-10-14T11:25:55.324Z,54.55
2023-10-14T11:28:27.713Z,55.21
2023-10-14T11:30:56.881Z,55.91
2023-10-14T11:33:24.395Z,55.62
2023-10-14T11:35:51.467Z,56.18
2023-10-14T11:38:20.197Z,55.56
2023-10-14T11:40:50.926Z,54.22
2023-10-14T11:43:19.019Z,53.50
2023-10-14T11:45:45.879Z,52.83
2023-10-14T11:48:34.717Z,52.50
2023-10-14T11:51:03.650Z,52.80
2023-10-14T11:53:33.485Z,53.13
2023-10-14T11:56:05.533Z,53.30
2023-10-14T11:58:34.066Z,51.69
2023-10-14T12:01:01.329Z,50.01
2023-10-14T12:03:28.589Z,52.59
2023-10-14T12:06:00.430Z,52.05
2023-10-14T12:08:38.998Z,51.48
2023-10-14T12:21:46.635Z,49.17
2023-10-14T12:24:13.346Z,51.30
2023-10-14T12:26:45.736Z,49.38
2023-10-14T12:29:13.606Z,47.75
2023-10-14T12:31:48.441Z,48.78
2023-10-14T12:34:16.705Z,49.52
2023-10-14T12:36:45.478Z,50.13
2023-10-14T12:39:23.114Z,48.20
2023-10-14T12:41:51.951Z,47.79
2023-10-14T12:44:19.176Z,47.00
2023-10-14T12:46:47.232Z,47.01
2023-10-14T12:49:19.841Z,47.49
2023-10-14T12:51:47.408Z,46.91
2023-10-14T12:54:20.764Z,47.34
2023-10-14T12:56:48.806Z,46.76
2023-10-14T12:59:15.814Z,46.81
2023-10-14T13:01:48.151Z,47.88
2023-10-14T13:04:18.186Z,47.88
2023-10-14T13:06:51.135Z,47.45
2023-10-14T13:09:18.203Z,47.58
2023-10-14T13:11:45.084Z,46.47
2023-10-14T13:14:27.471Z,47.85
2023-10-14T13:17:02.463Z,47.88
2023-10-14T13:19:36.790Z,47.84
2023-10-14T13:22:10.898Z,46.89
2023-10-14T13:24:41.597Z,45.22
2023-10-14T13:27:08.448Z,44.30
2023-10-14T13:29:37.411Z,45.06
2023-10-14T13:32:04.470Z,46.40
2023-10-14T13:34:33.661Z,47.49
2023-10-14T13:37:01.016Z,48.81
2023-10-14T13:39:35.796Z,48.81
2023-10-14T13:42:03.621Z,48.04
2023-10-14T13:44:30.266Z,47.58
2023-10-14T13:46:57.051Z,47.72
2023-10-14T13:49:27.047Z,48.41
2023-10-14T13:51:54.276Z,48.34
2023-10-14T13:54:23.468Z,48.34
2023-10-14T13:59:32.641Z,47.41
2023-10-14T14:01:59.488Z,48.56
2023-10-14T14:04:46.810Z,47.01
2023-10-14T14:07:14.510Z,45.77
2023-10-14T14:09:41.953Z,46.80
2023-10-14T14:12:08.809Z,46.54
2023-10-14T14:14:38.159Z,46.69
2023-10-14T14:17:07.536Z,45.72
2023-10-14T14:19:34.525Z,45.93
2023-10-14T14:22:01.340Z,45.71
2023-10-14T14:24:28.113Z,46.43
2023-10-14T14:26:54.836Z,47.37
2023-10-14T14:29:21.604Z,46.84
2023-10-14T14:31:48.670Z,46.06
2023-10-14T14:34:15.746Z,47.21
2023-10-14T14:36:46.179Z,46.66
2023-10-14T14:39:16.558Z,45.63
2023-10-14T14:41:45.601Z,46.28
2023-10-14T14:44:14.810Z,47.23
2023-10-14T14:46:42.256Z,48.16
2023-10-14T14:49:13.495Z,48.29
2023-10-14T14:51:43.761Z,48.88
2023-10-14T14:54:11.150Z,48.13
2023-10-14T14:56:38.742Z,46.66
2023-10-14T14:59:05.403Z,47.10
2023-10-14T15:01:32.885Z,48.62
2023-10-14T15:03:59.713Z,47.93
2023-10-14T15:06:26.504Z,48.60
2023-10-14T15:08:53.373Z,48.40
2023-10-14T15:11:21.061Z,49.22
2023-10-14T15:13:47.841Z,49.28
2023-10-14T15:16:18.567Z,49.63
2023-10-14T15:18:49.749Z,49.43
2023-10-14T15:21:19.283Z,50.11
2023-10-14T15:23:46.026Z,50.84
2023-10-14T15:26:12.900Z,50.66
2023-10-14T15:28:41.338Z,50.71
2023-10-14T15:31:09.417Z,50.41
2023-10-14T15:33:36.278Z,50.24
2023-10-14T15:36:12.678Z,50.48
2023-10-14T15:38:39.941Z,51.12
2023-10-14T15:41:07.598Z,51.87
2023-10-14T15:43:34.656Z,51.82
2023-10-14T15:46:03.060Z,51.88
2023-10-14T15:48:33.745Z,52.02
2023-10-14T15:51:00.462Z,52.11
2023-10-14T15:53:29.412Z,51.12
2023-10-14T15:55:57.566Z,52.05
2023-10-14T15:58:38.670Z,52.03
2023-10-14T16:01:08.917Z,52.76
2023-10-14T16:03:36.089Z,52.26
2023-10-14T16:06:02.911Z,52.56
2023-10-14T16:08:29.675Z,52.58
2023-10-14T16:10:56.330Z,52.62
2023-10-14T16:13:24.498Z,53.08
2023-10-14T16:15:54.371Z,53.63
2023-10-14T16:18:22.096Z,53.44
2023-10-14T16:20:51.914Z,53.77
2023-10-14T16:23:19.136Z,54.05
2023-10-14T16:25:46.113Z,54.23
2023-10-14T16:28:15.216Z,55.08
2023-10-14T16:30:42.111Z,55.13
2023-10-14T16:33:09.219Z,54.84
2023-10-14T16:35:36.057Z,55.48
2023-10-14T16:38:08.366Z,55.27
2023-10-14T16:40:36.729Z,55.64
2023-10-14T16:43:05.281Z,56.13
2023-10-14T16:45:37.157Z,56.18
2023-10-14T16:48:13.637Z,55.95
2023-10-14T16:50:44.527Z,56.91
2023-10-14T16:53:12.024Z,56.37
2023-10-14T16:55:40.056Z,57.37
2023-10-14T16:58:07.201Z,62.53
2023-10-14T17:00:35.251Z,65.52
2023-10-14T17:03:03.868Z,65.17
2023-10-14T17:05:32.164Z,65.59
2023-10-14T17:08:03.927Z,65.36
2023-10-14T17:10:33.170Z,66.77
2023-10-14T17:13:02.007Z,67.34
2023-10-14T17:15:31.892Z,68.04
2023-10-14T17:18:02.416Z,68.03
2023-10-14T17:20:31.477Z,69.41
2023-10-14T17:23:01.833Z,69.37
2023-10-14T17:25:33.405Z,69.96
2023-10-14T17:28:04.868Z,70.53
2023-10-14T17:30:33.294Z,70.44
2023-10-14T17:33:11.113Z,70.06
2023-10-14T17:35:42.779Z,71.40
2023-10-14T17:38:10.032Z,72.88
2023-10-14T17:40:42.519Z,73.61
2023-10-14T17:43:12.232Z,73.74
2023-10-14T17:45:42.176Z,72.64
2023-10-14T17:48:10.734Z,70.90
2023-10-14T17:50:39.580Z,72.63
2023-10-14T17:53:17.203Z,72.75
2023-10-14T17:55:47.624Z,72.39
2023-10-14T17:58:15.007Z,72.23
2023-10-14T18:00:43.005Z,71.85
2023-10-14T18:03:14.425Z,72.37
2023-10-14T18:05:47.769Z,74.46
2023-10-14T18:08:20.936Z,73.58
2023-10-14T18:10:48.141Z,75.32
2023-10-14T18:13:15.789Z,74.47
2023-10-14T18:15:45.474Z,73.80
2023-10-14T18:18:13.678Z,73.55
2023-10-14T18:20:40.912Z,74.23
2023-10-14T18:23:08.217Z,73.35
2023-10-14T18:25:41.939Z,73.42
2023-10-14T18:28:09.857Z,74.19
2023-10-14T18:30:41.591Z,74.33
2023-10-14T18:33:10.419Z,75.68
2023-10-14T18:35:39.930Z,76.40
2023-10-14T18:38:12.093Z,76.91
2023-10-14T18:40:40.197Z,76.13
2023-10-14T18:43:08.778Z,75.19
2023-10-14T18:45:36.283Z,75.13
2023-10-14T18:48:09.640Z,76.47
2023-10-14T18:50:38.965Z,75.46
2023-10-14T18:53:10.079Z,76.92
2023-10-14T18:55:42.010Z,77.79
2023-10-14T18:58:12.470Z,77.64
2023-10-14T19:00:47.999Z,79.46
2023-10-14T19:03:15.681Z,79.40
2023-10-14T19:05:42.758Z,81.37
2023-10-14T19:08:13.850Z,82.49
2023-10-14T19:10:48.493Z,84.51
2023-10-14T19:13:17.673Z,87.43
2023-10-14T19:15:54.501Z,89.13
2023-10-14T19:18:21.540Z,89.90
2023-10-14T19:20:48.317Z,90.04
2023-10-14T19:23:17.567Z,92.17
2023-10-14T19:25:49.841Z,92.43
2023-10-14T19:28:22.569Z,94.46
2023-10-14T19:30:54.532Z,94.31
2023-10-14T19:33:26.023Z,95.00
2023-10-14T19:35:57.551Z,94.95
2023-10-14T19:38:24.635Z,95.86
2023-10-14T19:41:03.822Z,95.40
2023-10-14T19:43:33.232Z,97.04
2023-10-14T19:46:01.788Z,97.53
2023-10-14T19:48:28.695Z,98.02
2023-10-14T19:50:55.389Z,97.94
2023-10-14T19:53:24.066Z,99.49
2023-10-14T19:55:51.051Z,100.00
2023-10-14T19:58:19.036Z,100.00
2023-10-14T20:00:51.040Z,100.00
2023-10-14T20:03:20.657Z,100.00
2023-10-14T20:05:48.016Z,100.00
2023-10-14T20:08:22.876Z,100.00
2023-10-14T20:10:52.177Z,100.00
2023-10-14T20:13:19.925Z,99.35
2023-10-14T20:15:48.483Z,98.84
2023-10-14T20:18:20.567Z,99.94
2023-10-14T20:20:50.254Z,100.00
2023-10-14T20:23:18.865Z,98.68
2023-10-14T20:25:55.483Z,98.40
2023-10-14T20:28:22.552Z,95.71
2023-10-14T20:30:50.416Z,96.47
2023-10-14T20:33:20.134Z,96.78
2023-10-14T20:35:47.080Z,95.00
2023-10-14T20:38:14.626Z,97.56
2023-10-14T20:40:45.022Z,97.32
2023-10-14T20:43:12.649Z,96.24
2023-10-14T20:45:49.342Z,97.88
2023-10-14T20:48:19.112Z,97.81
2023-10-14T20:50:49.791Z,98.56
2023-10-14T20:53:19.508Z,98.45
2023-10-14T20:55:49.178Z,100.00
2023-10-14T20:58:16.501Z,100.00
2023-10-14T21:00:46.160Z,99.37
2023-10-14T21:03:22.061Z,100.00
2023-10-14T21:05:57.578Z,99.57
2023-10-14T21:08:28.463Z,99.32
2023-10-14T21:10:59.414Z,98.35
2023-10-14T21:13:28.158Z,97.38
2023-10-14T21:16:02.635Z,98.75
2023-10-14T21:18:30.484Z,98.23
2023-10-14T21:20:57.171Z,99.47
2023-10-14T21:23:24.400Z,99.92
2023-10-14T21:26:00.835Z,99.66
2023-10-14T21:28:30.791Z,99.25
2023-10-14T21:30:58.066Z,98.50
2023-10-14T21:33:25.101Z,98.94
2023-10-14T21:35:51.822Z,98.29
2023-10-14T21:38:18.685Z,99.94
2023-10-14T21:40:49.511Z,98.84
2023-10-14T21:43:18.820Z,98.92
2023-10-14T21:45:46.472Z,99.38
2023-10-14T21:48:33.838Z,99.58
2023-10-14T21:51:00.516Z,99.09
2023-10-14T21:53:27.630Z,99.58
2023-10-14T21:55:54.963Z,99.91
2023-10-14T21:58:21.674Z,100.00
2023-10-14T22:01:11.433Z,99.54
2023-10-14T22:03:38.202Z,99.90
2023-10-14T22:06:08.602Z,99.31
2023-10-14T22:08:38.174Z,100.00
2023-10-14T22:11:09.551Z,100.00
2023-10-14T22:13:38.326Z,100.00
2023-10-14T22:16:09.443Z,100.00
2023-10-14T22:18:37.734Z,100.00
2023-10-14T22:21:05.038Z,100.00
2023-10-14T22:23:31.676Z,100.00
2023-10-14T22:25:58.405Z,100.00
2023-10-14T22:28:25.142Z,100.00
2023-10-14T22:30:52.471Z,100.00
2023-10-14T22:33:19.774Z,100.00
2023-10-14T22:35:46.431Z,100.00
2023-10-14T22:38:13.464Z,100.00
2023-10-14T22:40:44.069Z,100.00
2023-10-14T22:43:11.801Z,100.00
2023-10-14T22:45:39.205Z,100.00
2023-10-14T22:48:07.700Z,100.00
2023-10-14T22:50:34.821Z,100.00
2023-10-14T22:53:01.429Z,100.00
2023-10-14T22:55:29.307Z,100.00
2023-10-14T22:57:57.468Z,100.00
2023-10-14T23:00:30.832Z,99.21
2023-10-14T23:02:58.660Z,98.44
2023-10-14T23:05:30.391Z,99.07
2023-10-14T23:08:00.755Z,99.34
2023-10-14T23:10:33.422Z,99.64
2023-10-14T23:13:01.506Z,99.25
2023-10-14T23:15:29.336Z,100.00
2023-10-14T23:17:57.998Z,100.00
2023-10-14T23:20:29.716Z,100.00
2023-10-14T23:22:58.514Z,100.00
2023-10-14T23:25:27.426Z,100.00
2023-10-14T23:27:55.904Z,100.00
2023-10-14T23:30:23.928Z,100.00
2023-10-14T23:32:56.585Z,100.00
2023-10-14T23:35:25.113Z,100.00
2023-10-14T23:37:54.111Z,100.00
2023-10-14T23:40:23.880Z,100.00
2023-10-14T23:42:52.663Z,100.00
2023-10-14T23:45:19.423Z,100.00
2023-10-14T23:47:51.033Z,100.00
2023-10-14T23:50:19.398Z,100.00
2023-10-14T23:52:50.853Z,100.00
2023-10-14T23:55:22.508Z,100.00
2023-10-14T23:57:50.138Z,100.00
